Meteo

Previsioni per il volo, messo gentilmente a disposizione da www.datameteo.com

per info sul servizio, contattare info@datameteo.it


Metar LIMZ

Available data for LIMZ from the past 2 hours
LEVALDIGI
TAF
TAF LIMZ 191700Z 1918/2018 VRB05KT CAVOK

Gif Infrarosso


Gif Nuvole


Ultima immagine Infrarosso


Ultima immagine Nuvole


Gif Pioggia